sensor_id;sensor_type;location;lat;lon;timestamp;pressure;altitude;pressure_sealevel;temperature;humidity
75555;BME280;66087;53.126;17.960;2024-02-14T00:02:05;101251.11;;;2.04;89.83
75555;BME280;66087;53.126;17.960;2024-02-14T00:04:32;101253.10;;;2.07;89.77
75555;BME280;66087;53.126;17.960;2024-02-14T00:06:59;101255.16;;;2.09;89.88
75555;BME280;66087;53.126;17.960;2024-02-14T00:09:26;101257.21;;;2.11;89.82
75555;BME280;66087;53.126;17.960;2024-02-14T00:11:53;101256.18;;;2.12;90.12
75555;BME280;66087;53.126;17.960;2024-02-14T00:14:20;101258.52;;;2.13;90.06
75555;BME280;66087;53.126;17.960;2024-02-14T00:16:48;101254.36;;;2.12;90.03
75555;BME280;66087;53.126;17.960;2024-02-14T00:19:14;101257.41;;;2.12;89.99
75555;BME280;66087;53.126;17.960;2024-02-14T00:21:41;101259.85;;;2.12;90.15
75555;BME280;66087;53.126;17.960;2024-02-14T00:24:09;101256.79;;;2.12;90.21
75555;BME280;66087;53.126;17.960;2024-02-14T00:26:41;101261.55;;;2.12;90.25
75555;BME280;66087;53.126;17.960;2024-02-14T00:29:08;101262.08;;;2.12;90.08
75555;BME280;66087;53.126;17.960;2024-02-14T00:31:36;101262.84;;;2.12;90.27
75555;BME280;66087;53.126;17.960;2024-02-14T00:34:03;101261.52;;;2.09;90.54
75555;BME280;66087;53.126;17.960;2024-02-14T00:36:31;101269.36;;;2.09;90.17
75555;BME280;66087;53.126;17.960;2024-02-14T00:38:58;101266.98;;;2.09;90.23
75555;BME280;66087;53.126;17.960;2024-02-14T00:41:26;101271.27;;;2.09;90.23
75555;BME280;66087;53.126;17.960;2024-02-14T00:43:56;101274.19;;;2.09;90.27
75555;BME280;66087;53.126;17.960;2024-02-14T00:46:23;101274.40;;;2.09;90.31
75555;BME280;66087;53.126;17.960;2024-02-14T00:48:50;101271.41;;;2.09;90.36
75555;BME280;66087;53.126;17.960;2024-02-14T00:51:17;101272.55;;;2.09;90.37
75555;BME280;66087;53.126;17.960;2024-02-14T00:53:43;101276.98;;;2.08;90.57
75555;BME280;66087;53.126;17.960;2024-02-14T00:56:10;101273.82;;;2.08;90.46
75555;BME280;66087;53.126;17.960;2024-02-14T00:58:37;101271.58;;;2.07;90.41
75555;BME280;66087;53.126;17.960;2024-02-14T01:01:04;101268.10;;;2.06;90.34
75555;BME280;66087;53.126;17.960;2024-02-14T01:03:31;101268.13;;;2.07;90.44
75555;BME280;66087;53.126;17.960;2024-02-14T01:05:58;101267.50;;;2.06;90.55
75555;BME280;66087;53.126;17.960;2024-02-14T01:08:25;101266.69;;;2.05;90.38
75555;BME280;66087;53.126;17.960;2024-02-14T01:10:52;101265.71;;;2.03;90.45
75555;BME280;66087;53.126;17.960;2024-02-14T01:13:19;101264.56;;;2.01;90.68
75555;BME280;66087;53.126;17.960;2024-02-14T01:15:45;101268.02;;;1.98;90.81
75555;BME280;66087;53.126;17.960;2024-02-14T01:18:12;101268.51;;;1.94;90.70
75555;BME280;66087;53.126;17.960;2024-02-14T01:20:39;101265.33;;;1.91;90.55
75555;BME280;66087;53.126;17.960;2024-02-14T01:23:06;101268.15;;;1.88;90.80
75555;BME280;66087;53.126;17.960;2024-02-14T01:25:33;101266.39;;;1.86;90.91
75555;BME280;66087;53.126;17.960;2024-02-14T01:28:00;101269.02;;;1.84;91.11
75555;BME280;66087;53.126;17.960;2024-02-14T01:30:27;101268.41;;;1.82;91.24
75555;BME280;66087;53.126;17.960;2024-02-14T01:32:54;101273.12;;;1.81;90.89
75555;BME280;66087;53.126;17.960;2024-02-14T01:35:21;101271.84;;;1.79;90.76
75555;BME280;66087;53.126;17.960;2024-02-14T01:37:48;101268.70;;;1.76;90.63
75555;BME280;66087;53.126;17.960;2024-02-14T01:40:14;101267.91;;;1.74;90.55
75555;BME280;66087;53.126;17.960;2024-02-14T01:42:42;101266.89;;;1.71;90.71
75555;BME280;66087;53.126;17.960;2024-02-14T01:45:09;101270.20;;;1.69;90.75
75555;BME280;66087;53.126;17.960;2024-02-14T01:47:36;101269.14;;;1.65;90.67
75555;BME280;66087;53.126;17.960;2024-02-14T01:50:06;101267.41;;;1.61;90.71
75555;BME280;66087;53.126;17.960;2024-02-14T01:52:35;101267.77;;;1.58;90.87
75555;BME280;66087;53.126;17.960;2024-02-14T01:55:05;101272.34;;;1.55;90.89
75555;BME280;66087;53.126;17.960;2024-02-14T01:57:33;101270.67;;;1.51;90.95
75555;BME280;66087;53.126;17.960;2024-02-14T02:00:03;101216.10;;;1.10;90.89
75555;BME280;66087;53.126;17.960;2024-02-14T02:02:39;101273.66;;;1.44;90.97
75555;BME280;66087;53.126;17.960;2024-02-14T02:05:08;101273.60;;;1.40;90.94
75555;BME280;66087;53.126;17.960;2024-02-14T02:07:35;101276.09;;;1.37;91.20
75555;BME280;66087;53.126;17.960;2024-02-14T02:10:06;101223.22;;;1.01;91.18
75555;BME280;66087;53.126;17.960;2024-02-14T02:12:32;101269.73;;;1.30;91.20
75555;BME280;66087;53.126;17.960;2024-02-14T02:14:59;101270.71;;;1.27;91.42
75555;BME280;66087;53.126;17.960;2024-02-14T02:17:26;101273.17;;;1.26;91.54
75555;BME280;66087;53.126;17.960;2024-02-14T02:19:53;101274.67;;;1.24;91.48
75555;BME280;66087;53.126;17.960;2024-02-14T02:22:22;101271.88;;;1.23;91.61
75555;BME280;66087;53.126;17.960;2024-02-14T02:24:49;101274.99;;;1.23;91.61
75555;BME280;66087;53.126;17.960;2024-02-14T02:27:17;101273.39;;;1.21;91.45
75555;BME280;66087;53.126;17.960;2024-02-14T02:29:44;101273.46;;;1.19;91.52
75555;BME280;66087;53.126;17.960;2024-02-14T02:32:10;101275.00;;;1.17;91.64
75555;BME280;66087;53.126;17.960;2024-02-14T02:34:38;101278.13;;;1.15;91.72
75555;BME280;66087;53.126;17.960;2024-02-14T02:37:05;101280.90;;;1.12;92.25
75555;BME280;66087;53.126;17.960;2024-02-14T02:39:35;101282.19;;;1.10;92.08
75555;BME280;66087;53.126;17.960;2024-02-14T02:42:04;101280.17;;;1.09;92.13
75555;BME280;66087;53.126;17.960;2024-02-14T02:44:31;101262.77;;;1.00;92.09
75555;BME280;66087;53.126;17.960;2024-02-14T02:46:58;101280.93;;;1.09;91.93
75555;BME280;66087;53.126;17.960;2024-02-14T02:49:27;101282.41;;;1.10;91.89
75555;BME280;66087;53.126;17.960;2024-02-14T02:51:55;101281.34;;;1.09;91.92
75555;BME280;66087;53.126;17.960;2024-02-14T02:54:22;101279.41;;;1.09;92.11
75555;BME280;66087;53.126;17.960;2024-02-14T02:56:49;101282.60;;;1.09;92.24
75555;BME280;66087;53.126;17.960;2024-02-14T02:59:16;101286.66;;;1.07;92.45
75555;BME280;66087;53.126;17.960;2024-02-14T03:01:43;101288.64;;;1.05;92.63
75555;BME280;66087;53.126;17.960;2024-02-14T03:04:11;101289.80;;;1.03;92.82
75555;BME280;66087;53.126;17.960;2024-02-14T03:06:40;101294.16;;;1.01;92.90
75555;BME280;66087;53.126;17.960;2024-02-14T03:09:07;101295.95;;;0.99;93.05
75555;BME280;66087;53.126;17.960;2024-02-14T03:11:34;101300.62;;;0.97;93.09
75555;BME280;66087;53.126;17.960;2024-02-14T03:14:02;101299.88;;;0.95;92.67
75555;BME280;66087;53.126;17.960;2024-02-14T03:16:30;101301.24;;;0.95;93.25
75555;BME280;66087;53.126;17.960;2024-02-14T03:18:57;101295.61;;;0.94;92.89
75555;BME280;66087;53.126;17.960;2024-02-14T03:21:25;101294.04;;;0.93;92.75
75555;BME280;66087;53.126;17.960;2024-02-14T03:23:51;101292.83;;;0.91;92.65
75555;BME280;66087;53.126;17.960;2024-02-14T03:26:20;101294.54;;;0.90;92.78
75555;BME280;66087;53.126;17.960;2024-02-14T03:28:47;101297.08;;;0.88;92.56
75555;BME280;66087;53.126;17.960;2024-02-14T03:31:15;101296.84;;;0.86;92.46
75555;BME280;66087;53.126;17.960;2024-02-14T03:33:43;101301.29;;;0.84;92.64
75555;BME280;66087;53.126;17.960;2024-02-14T03:36:10;101298.74;;;0.81;92.68
75555;BME280;66087;53.126;17.960;2024-02-14T03:38:37;101300.14;;;0.78;92.72
75555;BME280;66087;53.126;17.960;2024-02-14T03:41:06;101300.71;;;0.74;92.77
75555;BME280;66087;53.126;17.960;2024-02-14T03:43:33;101303.81;;;0.71;92.65
75555;BME280;66087;53.126;17.960;2024-02-14T03:46:00;101309.15;;;0.69;92.67
75555;BME280;66087;53.126;17.960;2024-02-14T03:48:27;101308.58;;;0.66;92.89
75555;BME280;66087;53.126;17.960;2024-02-14T03:50:54;101308.76;;;0.63;92.67
75555;BME280;66087;53.126;17.960;2024-02-14T03:53:21;101308.05;;;0.60;92.74
75555;BME280;66087;53.126;17.960;2024-02-14T03:55:48;101309.91;;;0.57;92.90
75555;BME280;66087;53.126;17.960;2024-02-14T03:58:15;101312.52;;;0.55;92.95
75555;BME280;66087;53.126;17.960;2024-02-14T04:00:50;101314.19;;;0.53;92.94
75555;BME280;66087;53.126;17.960;2024-02-14T04:03:17;101310.68;;;0.51;93.04
75555;BME280;66087;53.126;17.960;2024-02-14T04:05:44;101311.84;;;0.49;93.05
75555;BME280;66087;53.126;17.960;2024-02-14T04:08:11;101315.95;;;0.49;93.21
75555;BME280;66087;53.126;17.960;2024-02-14T04:10:38;101317.34;;;0.47;93.13
75555;BME280;66087;53.126;17.960;2024-02-14T04:13:05;101314.77;;;0.46;93.07
75555;BME280;66087;53.126;17.960;2024-02-14T04:15:32;101315.20;;;0.45;93.19
75555;BME280;66087;53.126;17.960;2024-02-14T04:17:59;101311.98;;;0.43;93.37
75555;BME280;66087;53.126;17.960;2024-02-14T04:20:26;101311.40;;;0.42;93.28
75555;BME280;66087;53.126;17.960;2024-02-14T04:22:53;101313.16;;;0.40;93.37
75555;BME280;66087;53.126;17.960;2024-02-14T04:25:20;101305.06;;;0.38;93.30
75555;BME280;66087;53.126;17.960;2024-02-14T04:27:48;101304.00;;;0.36;93.51
75555;BME280;66087;53.126;17.960;2024-02-14T04:30:14;101301.56;;;0.34;93.53
75555;BME280;66087;53.126;17.960;2024-02-14T04:32:41;101298.16;;;0.34;93.63
75555;BME280;66087;53.126;17.960;2024-02-14T04:35:09;101300.40;;;0.32;93.76
75555;BME280;66087;53.126;17.960;2024-02-14T04:37:36;101301.80;;;0.31;93.67
75555;BME280;66087;53.126;17.960;2024-02-14T04:40:03;101295.73;;;0.30;93.78
75555;BME280;66087;53.126;17.960;2024-02-14T04:42:30;101298.25;;;0.28;93.86
75555;BME280;66087;53.126;17.960;2024-02-14T04:44:57;101300.18;;;0.27;93.88
75555;BME280;66087;53.126;17.960;2024-02-14T04:47:24;101300.05;;;0.25;94.19
75555;BME280;66087;53.126;17.960;2024-02-14T04:49:51;101300.10;;;0.23;94.13
75555;BME280;66087;53.126;17.960;2024-02-14T04:52:18;101301.49;;;0.21;93.93
75555;BME280;66087;53.126;17.960;2024-02-14T04:54:44;101303.39;;;0.19;94.11
75555;BME280;66087;53.126;17.960;2024-02-14T04:57:11;101307.70;;;0.18;94.27
75555;BME280;66087;53.126;17.960;2024-02-14T04:59:39;101309.89;;;0.16;94.31
75555;BME280;66087;53.126;17.960;2024-02-14T05:02:05;101313.44;;;0.14;94.21
75555;BME280;66087;53.126;17.960;2024-02-14T05:04:33;101311.13;;;0.12;94.28
75555;BME280;66087;53.126;17.960;2024-02-14T05:07:01;101311.56;;;0.09;94.24
75555;BME280;66087;53.126;17.960;2024-02-14T05:09:28;101312.46;;;0.07;94.42
75555;BME280;66087;53.126;17.960;2024-02-14T05:11:56;101311.04;;;0.04;94.53
75555;BME280;66087;53.126;17.960;2024-02-14T05:14:23;101308.70;;;0.03;94.96
75555;BME280;66087;53.126;17.960;2024-02-14T05:16:50;101307.92;;;0.02;94.78
75555;BME280;66087;53.126;17.960;2024-02-14T05:19:16;101305.08;;;0.02;94.64
75555;BME280;66087;53.126;17.960;2024-02-14T05:21:43;101299.59;;;0.02;94.70
75555;BME280;66087;53.126;17.960;2024-02-14T05:24:10;101304.14;;;0.02;94.45
75555;BME280;66087;53.126;17.960;2024-02-14T05:26:36;101301.70;;;0.01;94.61
75555;BME280;66087;53.126;17.960;2024-02-14T05:29:05;101299.39;;;0.01;94.39
75555;BME280;66087;53.126;17.960;2024-02-14T05:31:43;101299.70;;;0.01;94.43
75555;BME280;66087;53.126;17.960;2024-02-14T05:34:11;101309.48;;;0.02;94.69
75555;BME280;66087;53.126;17.960;2024-02-14T05:36:38;101311.61;;;0.01;95.01
75555;BME280;66087;53.126;17.960;2024-02-14T05:39:05;101302.56;;;-0.05;94.82
75555;BME280;66087;53.126;17.960;2024-02-14T05:41:34;101309.73;;;-0.01;94.90
75555;BME280;66087;53.126;17.960;2024-02-14T05:44:02;101308.24;;;-0.01;94.91
75555;BME280;66087;53.126;17.960;2024-02-14T05:46:29;101311.04;;;-0.02;94.96
75555;BME280;66087;53.126;17.960;2024-02-14T05:48:55;101309.25;;;-0.03;95.01
75555;BME280;66087;53.126;17.960;2024-02-14T05:51:24;101312.98;;;-0.03;94.93
75555;BME280;66087;53.126;17.960;2024-02-14T05:53:53;101315.11;;;-0.04;94.93
75555;BME280;66087;53.126;17.960;2024-02-14T05:56:20;101303.05;;;-0.12;94.79
75555;BME280;66087;53.126;17.960;2024-02-14T05:58:47;101322.45;;;-0.03;94.70
75555;BME280;66087;53.126;17.960;2024-02-14T06:01:14;101326.30;;;-0.02;94.92
75555;BME280;66087;53.126;17.960;2024-02-14T06:03:42;101327.11;;;-0.03;94.92
75555;BME280;66087;53.126;17.960;2024-02-14T06:06:10;101328.02;;;-0.03;95.05
75555;BME280;66087;53.126;17.960;2024-02-14T06:08:37;101325.22;;;-0.02;94.89
75555;BME280;66087;53.126;17.960;2024-02-14T06:11:04;101326.11;;;-0.02;94.90
75555;BME280;66087;53.126;17.960;2024-02-14T06:13:31;101309.66;;;-0.10;94.89
75555;BME280;66087;53.126;17.960;2024-02-14T06:15:58;101327.89;;;0.01;95.08
75555;BME280;66087;53.126;17.960;2024-02-14T06:18:24;101329.40;;;0.03;95.26
75555;BME280;66087;53.126;17.960;2024-02-14T06:20:52;101332.88;;;0.04;95.15
75555;BME280;66087;53.126;17.960;2024-02-14T06:23:19;101334.60;;;0.05;95.22
75555;BME280;66087;53.126;17.960;2024-02-14T06:25:46;101336.71;;;0.06;95.61
75555;BME280;66087;53.126;17.960;2024-02-14T06:28:15;101336.61;;;0.09;95.37
75555;BME280;66087;53.126;17.960;2024-02-14T06:30:41;101332.06;;;0.12;95.30
75555;BME280;66087;53.126;17.960;2024-02-14T06:33:08;101335.95;;;0.15;95.31
75555;BME280;66087;53.126;17.960;2024-02-14T06:35:35;101338.52;;;0.18;95.32
75555;BME280;66087;53.126;17.960;2024-02-14T06:38:02;101340.20;;;0.22;95.50
75555;BME280;66087;53.126;17.960;2024-02-14T06:40:29;101343.35;;;0.25;95.32
75555;BME280;66087;53.126;17.960;2024-02-14T06:42:56;101340.55;;;0.29;95.40
75555;BME280;66087;53.126;17.960;2024-02-14T06:45:23;101340.02;;;0.33;95.21
75555;BME280;66087;53.126;17.960;2024-02-14T06:47:50;101341.04;;;0.38;95.15
75555;BME280;66087;53.126;17.960;2024-02-14T06:50:17;101342.09;;;0.41;95.06
75555;BME280;66087;53.126;17.960;2024-02-14T06:52:43;101343.64;;;0.45;95.13
75555;BME280;66087;53.126;17.960;2024-02-14T06:55:10;101340.30;;;0.50;95.02
75555;BME280;66087;53.126;17.960;2024-02-14T06:57:38;101341.38;;;0.55;94.93
75555;BME280;66087;53.126;17.960;2024-02-14T07:00:06;101342.34;;;0.59;94.83
75555;BME280;66087;53.126;17.960;2024-02-14T07:02:33;101342.73;;;0.63;94.73
75555;BME280;66087;53.126;17.960;2024-02-14T07:05:00;101340.24;;;0.68;94.76
75555;BME280;66087;53.126;17.960;2024-02-14T07:07:29;101339.48;;;0.72;94.84
75555;BME280;66087;53.126;17.960;2024-02-14T07:09:56;101341.13;;;0.77;94.68
75555;BME280;66087;53.126;17.960;2024-02-14T07:12:24;101339.85;;;0.82;94.77
75555;BME280;66087;53.126;17.960;2024-02-14T07:14:52;101339.27;;;0.87;94.61
75555;BME280;66087;53.126;17.960;2024-02-14T07:17:19;101342.75;;;0.92;94.65
75555;BME280;66087;53.126;17.960;2024-02-14T07:19:46;101336.95;;;0.97;94.65
75555;BME280;66087;53.126;17.960;2024-02-14T07:22:16;101337.02;;;1.03;94.62
75555;BME280;66087;53.126;17.960;2024-02-14T07:24:45;101337.39;;;1.09;94.58
75555;BME280;66087;53.126;17.960;2024-02-14T07:27:14;101342.60;;;1.15;94.47
75555;BME280;66087;53.126;17.960;2024-02-14T07:29:41;101343.50;;;1.21;94.43
75555;BME280;66087;53.126;17.960;2024-02-14T07:32:08;101347.40;;;1.27;94.47
75555;BME280;66087;53.126;17.960;2024-02-14T07:34:39;101347.85;;;1.33;94.42
75555;BME280;66087;53.126;17.960;2024-02-14T07:37:06;101347.95;;;1.38;94.13
75555;BME280;66087;53.126;17.960;2024-02-14T07:39:34;101349.25;;;1.44;94.26
75555;BME280;66087;53.126;17.960;2024-02-14T07:42:02;101345.60;;;1.50;94.05
75555;BME280;66087;53.126;17.960;2024-02-14T07:44:30;101344.93;;;1.55;94.17
75555;BME280;66087;53.126;17.960;2024-02-14T07:46:57;101338.30;;;1.56;94.04
75555;BME280;66087;53.126;17.960;2024-02-14T07:49:25;101339.98;;;1.60;94.06
75555;BME280;66087;53.126;17.960;2024-02-14T07:51:52;101346.20;;;1.70;93.95
75555;BME280;66087;53.126;17.960;2024-02-14T07:54:19;101346.05;;;1.74;94.04
75555;BME280;66087;53.126;17.960;2024-02-14T07:56:46;101337.48;;;1.81;93.88
75555;BME280;66087;53.126;17.960;2024-02-14T07:59:13;101339.63;;;1.88;94.01
75555;BME280;66087;53.126;17.960;2024-02-14T08:01:39;101332.78;;;1.91;93.84
75555;BME280;66087;53.126;17.960;2024-02-14T08:04:06;101335.05;;;2.02;93.81
75555;BME280;66087;53.126;17.960;2024-02-14T08:06:33;101334.01;;;2.10;93.71
75555;BME280;66087;53.126;17.960;2024-02-14T08:09:00;101331.13;;;2.18;93.33
75555;BME280;66087;53.126;17.960;2024-02-14T08:11:30;101329.77;;;2.29;93.31
75555;BME280;66087;53.126;17.960;2024-02-14T08:13:56;101333.56;;;2.40;93.08
75555;BME280;66087;53.126;17.960;2024-02-14T08:16:24;101333.31;;;2.51;92.81
75555;BME280;66087;53.126;17.960;2024-02-14T08:18:51;101325.92;;;2.63;92.92
75555;BME280;66087;53.126;17.960;2024-02-14T08:21:26;101327.71;;;2.76;92.91
75555;BME280;66087;53.126;17.960;2024-02-14T08:23:53;101326.77;;;2.92;92.85
75555;BME280;66087;53.126;17.960;2024-02-14T08:26:21;101325.44;;;3.07;92.62
75555;BME280;66087;53.126;17.960;2024-02-14T08:28:49;101319.73;;;3.19;92.43
75555;BME280;66087;53.126;17.960;2024-02-14T08:31:16;101320.01;;;3.29;92.17
75555;BME280;66087;53.126;17.960;2024-02-14T08:33:43;101321.71;;;3.38;92.08
75555;BME280;66087;53.126;17.960;2024-02-14T08:36:11;101318.42;;;3.44;91.92
75555;BME280;66087;53.126;17.960;2024-02-14T08:38:39;101319.84;;;3.51;92.07
75555;BME280;66087;53.126;17.960;2024-02-14T08:41:06;101320.71;;;3.59;92.08
75555;BME280;66087;53.126;17.960;2024-02-14T08:43:34;101321.00;;;3.67;91.91
75555;BME280;66087;53.126;17.960;2024-02-14T08:46:01;101326.90;;;3.74;91.72
75555;BME280;66087;53.126;17.960;2024-02-14T08:48:29;101328.23;;;3.82;91.64
75555;BME280;66087;53.126;17.960;2024-02-14T08:50:59;101319.23;;;3.87;91.54
75555;BME280;66087;53.126;17.960;2024-02-14T08:53:26;101313.00;;;3.96;91.46
75555;BME280;66087;53.126;17.960;2024-02-14T08:55:53;101326.84;;;4.16;91.55
75555;BME280;66087;53.126;17.960;2024-02-14T08:58:20;101328.73;;;4.26;91.25
75555;BME280;66087;53.126;17.960;2024-02-14T09:00:48;101326.10;;;4.36;90.95
75555;BME280;66087;53.126;17.960;2024-02-14T09:03:17;101324.98;;;4.48;90.79
75555;BME280;66087;53.126;17.960;2024-02-14T09:05:46;101327.52;;;4.57;90.50
75555;BME280;66087;53.126;17.960;2024-02-14T09:08:13;101324.17;;;4.66;90.60
75555;BME280;66087;53.126;17.960;2024-02-14T09:10:40;101323.66;;;4.74;90.14
75555;BME280;66087;53.126;17.960;2024-02-14T09:13:09;101324.05;;;4.85;89.81
75555;BME280;66087;53.126;17.960;2024-02-14T09:15:36;101325.93;;;4.98;90.06
75555;BME280;66087;53.126;17.960;2024-02-14T09:18:03;101327.70;;;5.10;89.76
75555;BME280;66087;53.126;17.960;2024-02-14T09:20:30;101330.31;;;5.16;89.09
75555;BME280;66087;53.126;17.960;2024-02-14T09:22:58;101327.55;;;5.21;88.77
75555;BME280;66087;53.126;17.960;2024-02-14T09:25:25;101329.31;;;5.24;88.87
75555;BME280;66087;53.126;17.960;2024-02-14T09:27:52;101334.18;;;5.32;89.15
75555;BME280;66087;53.126;17.960;2024-02-14T09:30:19;101329.87;;;5.41;88.71
75555;BME280;66087;53.126;17.960;2024-02-14T09:32:47;101330.45;;;5.51;88.86
75555;BME280;66087;53.126;17.960;2024-02-14T09:35:14;101332.81;;;5.58;88.21
75555;BME280;66087;53.126;17.960;2024-02-14T09:37:41;101335.33;;;5.65;87.90
75555;BME280;66087;53.126;17.960;2024-02-14T09:40:11;101334.46;;;5.68;87.13
75555;BME280;66087;53.126;17.960;2024-02-14T09:42:44;101336.20;;;5.75;87.46
75555;BME280;66087;53.126;17.960;2024-02-14T09:45:14;101334.17;;;5.86;87.05
75555;BME280;66087;53.126;17.960;2024-02-14T09:47:42;101332.95;;;6.03;87.15
75555;BME280;66087;53.126;17.960;2024-02-14T09:50:11;101326.11;;;6.20;86.40
75555;BME280;66087;53.126;17.960;2024-02-14T09:52:39;101326.66;;;6.35;86.76
75555;BME280;66087;53.126;17.960;2024-02-14T09:55:06;101328.30;;;6.47;86.64
75555;BME280;66087;53.126;17.960;2024-02-14T09:57:41;101324.80;;;6.60;86.29
75555;BME280;66087;53.126;17.960;2024-02-14T10:00:10;101323.79;;;6.77;85.56
75555;BME280;66087;53.126;17.960;2024-02-14T10:02:37;101323.69;;;6.92;84.05
75555;BME280;66087;53.126;17.960;2024-02-14T10:05:05;101321.48;;;7.08;84.43
75555;BME280;66087;53.126;17.960;2024-02-14T10:07:41;101319.41;;;7.22;83.65
75555;BME280;66087;53.126;17.960;2024-02-14T10:10:10;101317.56;;;7.28;81.34
75555;BME280;66087;53.126;17.960;2024-02-14T10:12:37;101319.44;;;7.36;81.42
75555;BME280;66087;53.126;17.960;2024-02-14T10:15:08;101318.60;;;7.53;80.93
75555;BME280;66087;53.126;17.960;2024-02-14T10:17:34;101315.25;;;7.66;80.83
75555;BME280;66087;53.126;17.960;2024-02-14T10:20:03;101313.36;;;7.79;80.29
75555;BME280;66087;53.126;17.960;2024-02-14T10:22:34;101300.83;;;7.87;81.02
75555;BME280;66087;53.126;17.960;2024-02-14T10:25:03;101293.88;;;7.88;78.93
75555;BME280;66087;53.126;17.960;2024-02-14T10:27:30;101268.64;;;7.77;79.10
75555;BME280;66087;53.126;17.960;2024-02-14T10:29:59;101292.15;;;7.94;78.88
75555;BME280;66087;53.126;17.960;2024-02-14T10:32:28;101292.84;;;7.94;77.06
75555;BME280;66087;53.126;17.960;2024-02-14T10:34:55;101292.59;;;7.93;78.30
75555;BME280;66087;53.126;17.960;2024-02-14T10:37:23;101296.79;;;7.95;78.33
75555;BME280;66087;53.126;17.960;2024-02-14T10:39:51;101296.39;;;7.93;77.28
75555;BME280;66087;53.126;17.960;2024-02-14T10:42:20;101298.03;;;7.95;78.19
75555;BME280;66087;53.126;17.960;2024-02-14T10:44:46;101298.07;;;8.00;78.66
75555;BME280;66087;53.126;17.960;2024-02-14T10:47:19;101293.11;;;8.08;78.63
75555;BME280;66087;53.126;17.960;2024-02-14T10:49:48;101283.51;;;8.18;78.65
75555;BME280;66087;53.126;17.960;2024-02-14T10:52:19;101279.04;;;8.21;76.31
75555;BME280;66087;53.126;17.960;2024-02-14T10:54:53;101278.55;;;8.17;74.66
75555;BME280;66087;53.126;17.960;2024-02-14T10:57:25;101277.83;;;8.24;75.77
75555;BME280;66087;53.126;17.960;2024-02-14T10:59:55;101276.06;;;8.34;76.48
75555;BME280;66087;53.126;17.960;2024-02-14T11:02:24;101278.81;;;8.42;75.07
75555;BME280;66087;53.126;17.960;2024-02-14T11:04:51;101269.81;;;8.50;73.95
75555;BME280;66087;53.126;17.960;2024-02-14T11:07:20;101272.80;;;8.60;74.41
75555;BME280;66087;53.126;17.960;2024-02-14T11:10:04;101268.92;;;8.61;71.58
75555;BME280;66087;53.126;17.960;2024-02-14T11:12:34;101267.71;;;8.63;71.69
75555;BME280;66087;53.126;17.960;2024-02-14T11:15:16;101270.20;;;8.63;71.84
75555;BME280;66087;53.126;17.960;2024-02-14T11:17:44;101266.25;;;8.66;71.11
75555;BME280;66087;53.126;17.960;2024-02-14T11:20:15;101261.26;;;8.72;71.78
75555;BME280;66087;53.126;17.960;2024-02-14T11:22:55;101258.80;;;8.81;72.12
75555;BME280;66087;53.126;17.960;2024-02-14T11:25:28;101253.59;;;8.95;71.46
75555;BME280;66087;53.126;17.960;2024-02-14T11:27:58;101250.22;;;9.07;70.70
75555;BME280;66087;53.126;17.960;2024-02-14T11:30:29;101245.42;;;9.11;70.02
75555;BME280;66087;53.126;17.960;2024-02-14T11:33:10;101242.25;;;9.14;69.32
75555;BME280;66087;53.126;17.960;2024-02-14T11:35:41;101240.92;;;9.09;68.50
75555;BME280;66087;53.126;17.960;2024-02-14T11:38:09;101247.44;;;9.09;67.84
75555;BME280;66087;53.126;17.960;2024-02-14T11:40:36;101241.16;;;9.08;67.87
75555;BME280;66087;53.126;17.960;2024-02-14T13:03:37;101184.58;;;9.10;63.52
75555;BME280;66087;53.126;17.960;2024-02-14T13:06:05;101186.59;;;9.08;63.12
75555;BME280;66087;53.126;17.960;2024-02-14T13:08:32;101184.48;;;9.07;63.28
75555;BME280;66087;53.126;17.960;2024-02-14T13:10:58;101185.89;;;9.11;63.09
75555;BME280;66087;53.126;17.960;2024-02-14T13:13:26;101186.45;;;9.12;63.51
75555;BME280;66087;53.126;17.960;2024-02-14T13:15:57;101180.78;;;9.10;63.10
75555;BME280;66087;53.126;17.960;2024-02-14T13:18:24;101182.62;;;9.05;63.34
75555;BME280;66087;53.126;17.960;2024-02-14T13:20:51;101184.17;;;9.01;63.89
75555;BME280;66087;53.126;17.960;2024-02-14T13:23:24;101186.34;;;8.97;63.82
75555;BME280;66087;53.126;17.960;2024-02-14T13:25:51;101183.61;;;8.93;63.98
75555;BME280;66087;53.126;17.960;2024-02-14T13:28:18;101184.45;;;8.92;64.12
75555;BME280;66087;53.126;17.960;2024-02-14T13:30:45;101187.56;;;8.98;64.78
75555;BME280;66087;53.126;17.960;2024-02-14T13:33:13;101183.26;;;9.07;64.95
75555;BME280;66087;53.126;17.960;2024-02-14T13:35:40;101182.95;;;9.14;64.31
75555;BME280;66087;53.126;17.960;2024-02-14T13:38:08;101186.14;;;9.16;64.71
75555;BME280;66087;53.126;17.960;2024-02-14T13:40:36;101184.98;;;9.14;64.69
75555;BME280;66087;53.126;17.960;2024-02-14T13:43:03;101187.67;;;9.09;64.25
75555;BME280;66087;53.126;17.960;2024-02-14T13:45:41;101187.50;;;9.01;64.37
75555;BME280;66087;53.126;17.960;2024-02-14T13:48:09;101186.17;;;8.93;64.65
75555;BME280;66087;53.126;17.960;2024-02-14T13:50:37;101182.04;;;8.88;65.00
75555;BME280;66087;53.126;17.960;2024-02-14T13:53:06;101187.68;;;8.82;64.77
75555;BME280;66087;53.126;17.960;2024-02-14T13:55:33;101190.51;;;8.71;64.90
75555;BME280;66087;53.126;17.960;2024-02-14T13:58:02;101191.80;;;8.63;65.22
75555;BME280;66087;53.126;17.960;2024-02-14T14:00:28;101192.77;;;8.52;65.45
75555;BME280;66087;53.126;17.960;2024-02-14T14:02:56;101191.23;;;8.40;65.92
75555;BME280;66087;53.126;17.960;2024-02-14T14:05:23;101194.45;;;8.31;66.36
75555;BME280;66087;53.126;17.960;2024-02-14T14:07:51;101201.94;;;8.21;66.60
75555;BME280;66087;53.126;17.960;2024-02-14T14:10:19;101202.06;;;8.13;66.88
75555;BME280;66087;53.126;17.960;2024-02-14T14:12:45;101205.18;;;8.06;67.10
75555;BME280;66087;53.126;17.960;2024-02-14T14:15:13;101202.02;;;7.98;67.35